Terminal Aerodrome Forecast
Issued by NWS Charleston, SC

Home | Current Version | Previous Version | Text Only | Print | Product List | Glossary On
Versions: 1 2 3 4 5 6 7 8 9 10 11 12 13 14 15 16 17 18 19 20
717
FTUS42 KCHS 170520
TAFSAV
TAF
KSAV 170520Z 1706/1806 03012G18KT P6SM SCT060 BKN200
     FM171500 03013G19KT P6SM SCT250
     FM172200 03008KT P6SM FEW200=

USA.gov is the U.S. government's official web portal to all federal, state and local government web resources and services.